Roanoke, Virginia
Current Conditions -  °F | °C
As of 8:54 AM on Sunday 23 Nov 2014 (Local Time) from KROA Reporting Station
Overcast Overcast  
Wind Chill:   Ceiling: 25000
Heat Index:   Visibility: 10mi
Dew Point: -4°   Wind: 0mph
Humidity: 67%   Direction: NA
Pressure: 30.23"   Gusts: NA
Location:  37.27°N, 79.94°W
Report Text: KROA 231354Z 00000KT 10SM SCT150 OVC250 01/M04 A3023 RMK AO2 SLP243 T00111044
Loading
Personal Weather Stations






























Interactive Weather Map New forecast layout! Learn more

10-Day Weather Forecast

Advertisements
Track Severe Weather on mobile